sensor_id;sensor_type;location;lat;lon;timestamp;temperature;humidity
31309;DHT22;17936;52.446;10.840;2023-04-26T00:01:22;3.70;99.90
31309;DHT22;17936;52.446;10.840;2023-04-26T00:03:47;3.70;99.90
31309;DHT22;17936;52.446;10.840;2023-04-26T00:06:13;3.80;99.90
31309;DHT22;17936;52.446;10.840;2023-04-26T00:08:39;3.80;99.90
31309;DHT22;17936;52.446;10.840;2023-04-26T00:11:06;3.80;99.90
31309;DHT22;17936;52.446;10.840;2023-04-26T00:13:32;3.70;99.90
31309;DHT22;17936;52.446;10.840;2023-04-26T00:15:57;3.80;99.90
31309;DHT22;17936;52.446;10.840;2023-04-26T00:18:23;3.80;99.90
31309;DHT22;17936;52.446;10.840;2023-04-26T00:20:49;3.70;99.90
31309;DHT22;17936;52.446;10.840;2023-04-26T00:23:14;3.80;99.90
31309;DHT22;17936;52.446;10.840;2023-04-26T00:25:40;3.80;99.90
31309;DHT22;17936;52.446;10.840;2023-04-26T00:28:06;3.70;99.90
31309;DHT22;17936;52.446;10.840;2023-04-26T00:30:31;3.70;99.90
31309;DHT22;17936;52.446;10.840;2023-04-26T00:32:58;3.70;99.90
31309;DHT22;17936;52.446;10.840;2023-04-26T00:35:24;3.70;99.90
31309;DHT22;17936;52.446;10.840;2023-04-26T00:37:49;3.70;99.90
31309;DHT22;17936;52.446;10.840;2023-04-26T00:40:15;3.60;99.90
31309;DHT22;17936;52.446;10.840;2023-04-26T00:42:41;3.60;99.90
31309;DHT22;17936;52.446;10.840;2023-04-26T00:45:07;3.50;99.90
31309;DHT22;17936;52.446;10.840;2023-04-26T00:47:33;3.50;99.90
31309;DHT22;17936;52.446;10.840;2023-04-26T00:50:00;3.50;99.90
31309;DHT22;17936;52.446;10.840;2023-04-26T00:52:27;3.60;99.90
31309;DHT22;17936;52.446;10.840;2023-04-26T00:54:53;3.60;99.90
31309;DHT22;17936;52.446;10.840;2023-04-26T00:57:20;3.60;99.90
31309;DHT22;17936;52.446;10.840;2023-04-26T00:59:46;3.50;99.90
31309;DHT22;17936;52.446;10.840;2023-04-26T01:02:12;3.50;99.90
31309;DHT22;17936;52.446;10.840;2023-04-26T01:04:37;3.50;99.90
31309;DHT22;17936;52.446;10.840;2023-04-26T01:07:04;3.50;99.90
31309;DHT22;17936;52.446;10.840;2023-04-26T01:09:50;3.50;99.90
31309;DHT22;17936;52.446;10.840;2023-04-26T01:12:15;3.40;99.90
31309;DHT22;17936;52.446;10.840;2023-04-26T01:14:41;3.40;99.90
31309;DHT22;17936;52.446;10.840;2023-04-26T01:17:08;3.40;99.90
31309;DHT22;17936;52.446;10.840;2023-04-26T01:19:33;3.40;99.90
31309;DHT22;17936;52.446;10.840;2023-04-26T01:22:02;3.40;99.90
31309;DHT22;17936;52.446;10.840;2023-04-26T01:24:28;3.50;99.90
31309;DHT22;17936;52.446;10.840;2023-04-26T01:26:54;3.40;99.90
31309;DHT22;17936;52.446;10.840;2023-04-26T01:29:21;3.30;99.90
31309;DHT22;17936;52.446;10.840;2023-04-26T01:31:47;3.40;99.90
31309;DHT22;17936;52.446;10.840;2023-04-26T01:34:13;3.30;99.90
31309;DHT22;17936;52.446;10.840;2023-04-26T01:36:39;3.40;99.90
31309;DHT22;17936;52.446;10.840;2023-04-26T01:39:05;3.30;99.90
31309;DHT22;17936;52.446;10.840;2023-04-26T01:41:32;3.30;99.90
31309;DHT22;17936;52.446;10.840;2023-04-26T01:43:58;3.30;99.90
31309;DHT22;17936;52.446;10.840;2023-04-26T01:46:24;3.30;99.90
31309;DHT22;17936;52.446;10.840;2023-04-26T01:48:49;3.20;99.90
31309;DHT22;17936;52.446;10.840;2023-04-26T01:51:15;3.30;99.90
31309;DHT22;17936;52.446;10.840;2023-04-26T01:53:41;3.30;99.90
31309;DHT22;17936;52.446;10.840;2023-04-26T01:56:06;3.30;99.90
31309;DHT22;17936;52.446;10.840;2023-04-26T01:58:32;3.20;99.90
31309;DHT22;17936;52.446;10.840;2023-04-26T02:01:05;3.20;99.90
31309;DHT22;17936;52.446;10.840;2023-04-26T02:03:31;3.20;99.90
31309;DHT22;17936;52.446;10.840;2023-04-26T02:05:56;3.20;99.90
31309;DHT22;17936;52.446;10.840;2023-04-26T02:08:22;3.10;99.90
31309;DHT22;17936;52.446;10.840;2023-04-26T02:10:48;3.00;99.90
31309;DHT22;17936;52.446;10.840;2023-04-26T02:13:14;3.00;99.90
31309;DHT22;17936;52.446;10.840;2023-04-26T02:15:39;3.10;99.90
31309;DHT22;17936;52.446;10.840;2023-04-26T02:18:05;3.00;99.90
31309;DHT22;17936;52.446;10.840;2023-04-26T02:20:31;3.10;99.90
31309;DHT22;17936;52.446;10.840;2023-04-26T02:22:57;3.00;99.90
31309;DHT22;17936;52.446;10.840;2023-04-26T02:25:22;3.00;99.90
31309;DHT22;17936;52.446;10.840;2023-04-26T02:27:49;3.00;99.90
31309;DHT22;17936;52.446;10.840;2023-04-26T02:30:14;3.00;99.90
31309;DHT22;17936;52.446;10.840;2023-04-26T02:32:40;3.00;99.90
31309;DHT22;17936;52.446;10.840;2023-04-26T02:35:06;3.00;99.90
31309;DHT22;17936;52.446;10.840;2023-04-26T02:37:32;2.90;99.90
31309;DHT22;17936;52.446;10.840;2023-04-26T02:40:01;2.90;99.90
31309;DHT22;17936;52.446;10.840;2023-04-26T02:42:29;2.90;99.90
31309;DHT22;17936;52.446;10.840;2023-04-26T02:44:55;2.90;99.90
31309;DHT22;17936;52.446;10.840;2023-04-26T02:47:21;2.90;99.90
31309;DHT22;17936;52.446;10.840;2023-04-26T02:49:46;2.90;99.90
31309;DHT22;17936;52.446;10.840;2023-04-26T02:52:12;2.80;99.90
31309;DHT22;17936;52.446;10.840;2023-04-26T02:54:37;2.80;99.90
31309;DHT22;17936;52.446;10.840;2023-04-26T02:57:03;2.80;99.90
31309;DHT22;17936;52.446;10.840;2023-04-26T02:59:28;2.80;99.90
31309;DHT22;17936;52.446;10.840;2023-04-26T03:01:54;2.70;99.90
31309;DHT22;17936;52.446;10.840;2023-04-26T03:04:19;2.80;99.90
31309;DHT22;17936;52.446;10.840;2023-04-26T03:06:45;2.80;99.90
31309;DHT22;17936;52.446;10.840;2023-04-26T03:09:11;2.80;99.90
31309;DHT22;17936;52.446;10.840;2023-04-26T03:11:36;2.70;99.90
31309;DHT22;17936;52.446;10.840;2023-04-26T03:14:02;2.60;99.90
31309;DHT22;17936;52.446;10.840;2023-04-26T03:16:27;2.60;99.90
31309;DHT22;17936;52.446;10.840;2023-04-26T03:18:53;2.60;99.90
31309;DHT22;17936;52.446;10.840;2023-04-26T03:21:19;2.70;99.90
31309;DHT22;17936;52.446;10.840;2023-04-26T03:23:45;2.60;99.90
31309;DHT22;17936;52.446;10.840;2023-04-26T03:26:11;2.60;99.90
31309;DHT22;17936;52.446;10.840;2023-04-26T03:28:36;2.60;99.90
31309;DHT22;17936;52.446;10.840;2023-04-26T03:31:02;2.60;99.90
31309;DHT22;17936;52.446;10.840;2023-04-26T03:33:29;2.60;99.90
31309;DHT22;17936;52.446;10.840;2023-04-26T03:35:54;2.60;99.90
31309;DHT22;17936;52.446;10.840;2023-04-26T03:38:20;2.70;99.90
31309;DHT22;17936;52.446;10.840;2023-04-26T03:40:46;2.60;99.90
31309;DHT22;17936;52.446;10.840;2023-04-26T03:43:12;2.60;99.90
31309;DHT22;17936;52.446;10.840;2023-04-26T03:45:37;2.60;99.90
31309;DHT22;17936;52.446;10.840;2023-04-26T03:48:03;2.60;99.90
31309;DHT22;17936;52.446;10.840;2023-04-26T03:50:29;2.60;99.90
31309;DHT22;17936;52.446;10.840;2023-04-26T03:52:54;2.50;99.90
31309;DHT22;17936;52.446;10.840;2023-04-26T03:55:20;2.50;99.90
31309;DHT22;17936;52.446;10.840;2023-04-26T03:57:46;2.50;99.90
31309;DHT22;17936;52.446;10.840;2023-04-26T04:00:12;2.40;99.90
31309;DHT22;17936;52.446;10.840;2023-04-26T04:02:38;2.50;99.90
31309;DHT22;17936;52.446;10.840;2023-04-26T04:05:04;2.50;99.90
31309;DHT22;17936;52.446;10.840;2023-04-26T04:07:30;2.50;99.90
31309;DHT22;17936;52.446;10.840;2023-04-26T04:09:57;2.50;99.90
31309;DHT22;17936;52.446;10.840;2023-04-26T04:12:23;2.50;99.90
31309;DHT22;17936;52.446;10.840;2023-04-26T04:14:48;2.50;99.90
31309;DHT22;17936;52.446;10.840;2023-04-26T04:17:14;2.50;99.90
31309;DHT22;17936;52.446;10.840;2023-04-26T04:19:39;2.50;99.90
31309;DHT22;17936;52.446;10.840;2023-04-26T04:22:05;2.60;99.90
31309;DHT22;17936;52.446;10.840;2023-04-26T04:24:31;2.70;99.90
31309;DHT22;17936;52.446;10.840;2023-04-26T04:26:56;2.70;99.90
31309;DHT22;17936;52.446;10.840;2023-04-26T04:29:22;2.80;99.90
31309;DHT22;17936;52.446;10.840;2023-04-26T04:31:47;2.80;99.90
31309;DHT22;17936;52.446;10.840;2023-04-26T04:34:13;2.80;99.90
31309;DHT22;17936;52.446;10.840;2023-04-26T04:36:38;2.90;99.90
31309;DHT22;17936;52.446;10.840;2023-04-26T04:39:04;2.90;99.90
31309;DHT22;17936;52.446;10.840;2023-04-26T04:41:36;3.00;99.90
31309;DHT22;17936;52.446;10.840;2023-04-26T04:44:02;3.00;99.90
31309;DHT22;17936;52.446;10.840;2023-04-26T04:46:28;3.10;99.40
31309;DHT22;17936;52.446;10.840;2023-04-26T04:48:54;3.10;95.00
31309;DHT22;17936;52.446;10.840;2023-04-26T04:51:19;3.20;95.70
31309;DHT22;17936;52.446;10.840;2023-04-26T04:53:45;3.30;95.30
31309;DHT22;17936;52.446;10.840;2023-04-26T04:56:10;3.30;91.50
31309;DHT22;17936;52.446;10.840;2023-04-26T04:58:36;3.30;86.40
31309;DHT22;17936;52.446;10.840;2023-04-26T05:01:02;3.40;79.40
31309;DHT22;17936;52.446;10.840;2023-04-26T05:03:27;3.50;70.20
31309;DHT22;17936;52.446;10.840;2023-04-26T05:05:53;3.50;64.60
31309;DHT22;17936;52.446;10.840;2023-04-26T05:08:19;3.50;61.90
31309;DHT22;17936;52.446;10.840;2023-04-26T05:10:44;3.70;61.60
31309;DHT22;17936;52.446;10.840;2023-04-26T05:13:10;3.60;45.00
31309;DHT22;17936;52.446;10.840;2023-04-26T05:15:35;3.80;36.50
31309;DHT22;17936;52.446;10.840;2023-04-26T05:18:01;4.00;27.20
31309;DHT22;17936;52.446;10.840;2023-04-26T05:20:27;4.10;7.80
31309;DHT22;17936;52.446;10.840;2023-04-26T05:22:52;4.10;4.40
31309;DHT22;17936;52.446;10.840;2023-04-26T05:25:18;4.00;15.30
31309;DHT22;17936;52.446;10.840;2023-04-26T05:27:43;3.90;9.10
31309;DHT22;17936;52.446;10.840;2023-04-26T05:30:10;3.90;11.00
31309;DHT22;17936;52.446;10.840;2023-04-26T05:32:36;3.90;13.20
31309;DHT22;17936;52.446;10.840;2023-04-26T05:35:02;4.00;15.90
31309;DHT22;17936;52.446;10.840;2023-04-26T05:37:27;4.20;13.80
31309;DHT22;17936;52.446;10.840;2023-04-26T05:39:53;4.00;8.80
31309;DHT22;17936;52.446;10.840;2023-04-26T05:42:18;4.00;8.00
31309;DHT22;17936;52.446;10.840;2023-04-26T05:44:44;4.00;15.50
31309;DHT22;17936;52.446;10.840;2023-04-26T05:47:10;4.60;11.30
31309;DHT22;17936;52.446;10.840;2023-04-26T05:49:35;4.80;1.00
31309;DHT22;17936;52.446;10.840;2023-04-26T05:52:01;5.10;1.00
31309;DHT22;17936;52.446;10.840;2023-04-26T05:54:28;5.20;99.90
31309;DHT22;17936;52.446;10.840;2023-04-26T05:56:53;5.60;99.90
31309;DHT22;17936;52.446;10.840;2023-04-26T05:59:19;5.70;99.90
31309;DHT22;17936;52.446;10.840;2023-04-26T06:01:45;5.90;99.90
31309;DHT22;17936;52.446;10.840;2023-04-26T06:04:11;5.40;99.90
31309;DHT22;17936;52.446;10.840;2023-04-26T06:06:36;5.40;99.90
31309;DHT22;17936;52.446;10.840;2023-04-26T06:09:02;5.30;99.90
31309;DHT22;17936;52.446;10.840;2023-04-26T06:11:27;5.40;99.90
31309;DHT22;17936;52.446;10.840;2023-04-26T06:13:53;5.90;99.90
31309;DHT22;17936;52.446;10.840;2023-04-26T06:16:18;6.30;99.90
31309;DHT22;17936;52.446;10.840;2023-04-26T06:18:44;6.40;99.90
31309;DHT22;17936;52.446;10.840;2023-04-26T06:21:09;6.30;1.00
31309;DHT22;17936;52.446;10.840;2023-04-26T06:23:35;6.20;1.00
31309;DHT22;17936;52.446;10.840;2023-04-26T06:26:00;6.10;38.50
31309;DHT22;17936;52.446;10.840;2023-04-26T06:28:26;6.00;40.10
31309;DHT22;17936;52.446;10.840;2023-04-26T06:30:51;6.30;26.40
31309;DHT22;17936;52.446;10.840;2023-04-26T06:33:17;6.40;25.40
31309;DHT22;17936;52.446;10.840;2023-04-26T06:35:42;6.50;47.70
31309;DHT22;17936;52.446;10.840;2023-04-26T06:38:08;6.60;4.90
31309;DHT22;17936;52.446;10.840;2023-04-26T06:40:34;6.80;99.90
31309;DHT22;17936;52.446;10.840;2023-04-26T06:43:01;6.70;99.90
31309;DHT22;17936;52.446;10.840;2023-04-26T06:45:27;6.70;99.90
31309;DHT22;17936;52.446;10.840;2023-04-26T06:47:53;7.00;99.90
31309;DHT22;17936;52.446;10.840;2023-04-26T06:50:19;7.40;99.90
31309;DHT22;17936;52.446;10.840;2023-04-26T06:52:44;7.70;99.90
31309;DHT22;17936;52.446;10.840;2023-04-26T06:55:10;7.10;99.90
31309;DHT22;17936;52.446;10.840;2023-04-26T06:57:35;7.30;99.90
31309;DHT22;17936;52.446;10.840;2023-04-26T07:00:02;7.90;99.90
31309;DHT22;17936;52.446;10.840;2023-04-26T07:02:28;7.80;99.90
31309;DHT22;17936;52.446;10.840;2023-04-26T07:04:54;8.30;99.90
31309;DHT22;17936;52.446;10.840;2023-04-26T07:07:20;8.70;99.90
31309;DHT22;17936;52.446;10.840;2023-04-26T07:09:45;8.00;99.90
31309;DHT22;17936;52.446;10.840;2023-04-26T07:12:11;8.40;99.90
31309;DHT22;17936;52.446;10.840;2023-04-26T07:14:36;8.10;99.90
31309;DHT22;17936;52.446;10.840;2023-04-26T07:17:06;7.80;99.90
31309;DHT22;17936;52.446;10.840;2023-04-26T07:19:31;7.30;99.90
31309;DHT22;17936;52.446;10.840;2023-04-26T07:21:57;7.50;99.90
31309;DHT22;17936;52.446;10.840;2023-04-26T07:24:22;8.00;99.90
31309;DHT22;17936;52.446;10.840;2023-04-26T07:26:48;7.90;99.90
31309;DHT22;17936;52.446;10.840;2023-04-26T07:29:13;7.30;99.90
31309;DHT22;17936;52.446;10.840;2023-04-26T07:31:39;7.50;99.90
31309;DHT22;17936;52.446;10.840;2023-04-26T07:34:04;7.70;99.90
31309;DHT22;17936;52.446;10.840;2023-04-26T07:36:30;7.70;99.90
31309;DHT22;17936;52.446;10.840;2023-04-26T07:38:56;7.60;99.90
31309;DHT22;17936;52.446;10.840;2023-04-26T07:41:21;7.60;99.90
31309;DHT22;17936;52.446;10.840;2023-04-26T07:43:47;7.70;99.90
31309;DHT22;17936;52.446;10.840;2023-04-26T07:46:12;7.70;99.90
31309;DHT22;17936;52.446;10.840;2023-04-26T07:48:38;7.90;99.90
31309;DHT22;17936;52.446;10.840;2023-04-26T07:51:07;7.30;99.90
31309;DHT22;17936;52.446;10.840;2023-04-26T07:53:33;7.70;99.90
31309;DHT22;17936;52.446;10.840;2023-04-26T07:55:59;7.60;99.90
31309;DHT22;17936;52.446;10.840;2023-04-26T07:58:24;8.30;99.90
31309;DHT22;17936;52.446;10.840;2023-04-26T08:00:50;8.60;99.90
31309;DHT22;17936;52.446;10.840;2023-04-26T08:03:16;8.50;99.90
31309;DHT22;17936;52.446;10.840;2023-04-26T08:05:45;8.00;99.90
31309;DHT22;17936;52.446;10.840;2023-04-26T08:08:10;8.30;99.90
31309;DHT22;17936;52.446;10.840;2023-04-26T08:10:39;8.00;99.90
31309;DHT22;17936;52.446;10.840;2023-04-26T08:13:05;7.50;99.90
31309;DHT22;17936;52.446;10.840;2023-04-26T08:15:31;7.50;99.90
31309;DHT22;17936;52.446;10.840;2023-04-26T08:17:57;7.40;99.90
31309;DHT22;17936;52.446;10.840;2023-04-26T08:20:22;8.00;99.90
31309;DHT22;17936;52.446;10.840;2023-04-26T08:22:48;8.00;99.90
31309;DHT22;17936;52.446;10.840;2023-04-26T08:25:14;7.70;99.90
31309;DHT22;17936;52.446;10.840;2023-04-26T08:27:40;7.80;99.90
31309;DHT22;17936;52.446;10.840;2023-04-26T08:30:06;7.70;99.90
31309;DHT22;17936;52.446;10.840;2023-04-26T08:32:31;7.90;99.90
31309;DHT22;17936;52.446;10.840;2023-04-26T08:34:58;8.10;99.90
31309;DHT22;17936;52.446;10.840;2023-04-26T08:37:24;8.90;99.90
31309;DHT22;17936;52.446;10.840;2023-04-26T08:39:50;9.30;99.90
31309;DHT22;17936;52.446;10.840;2023-04-26T08:42:16;9.10;99.90
31309;DHT22;17936;52.446;10.840;2023-04-26T08:44:43;8.40;99.90
31309;DHT22;17936;52.446;10.840;2023-04-26T08:47:27;8.70;99.90
31309;DHT22;17936;52.446;10.840;2023-04-26T08:49:55;8.80;99.90
31309;DHT22;17936;52.446;10.840;2023-04-26T08:52:26;9.60;99.90
31309;DHT22;17936;52.446;10.840;2023-04-26T08:54:53;9.90;99.90
31309;DHT22;17936;52.446;10.840;2023-04-26T08:57:26;9.70;99.90
31309;DHT22;17936;52.446;10.840;2023-04-26T08:59:52;9.90;99.90
31309;DHT22;17936;52.446;10.840;2023-04-26T09:02:20;10.10;99.90
31309;DHT22;17936;52.446;10.840;2023-04-26T09:04:47;10.50;99.90
31309;DHT22;17936;52.446;10.840;2023-04-26T09:07:30;10.70;99.90
31309;DHT22;17936;52.446;10.840;2023-04-26T09:09:57;10.90;99.90
31309;DHT22;17936;52.446;10.840;2023-04-26T09:12:23;9.80;99.90
31309;DHT22;17936;52.446;10.840;2023-04-26T09:14:48;9.20;99.90
31309;DHT22;17936;52.446;10.840;2023-04-26T09:17:43;9.10;99.90
31309;DHT22;17936;52.446;10.840;2023-04-26T09:22:49;10.80;98.70
31309;DHT22;17936;52.446;10.840;2023-04-26T09:25:17;11.30;98.40
31309;DHT22;17936;52.446;10.840;2023-04-26T09:27:43;10.70;97.40
31309;DHT22;17936;52.446;10.840;2023-04-26T09:30:15;9.80;98.90
31309;DHT22;17936;52.446;10.840;2023-04-26T09:33:01;9.70;97.50
31309;DHT22;17936;52.446;10.840;2023-04-26T09:35:36;10.20;97.00
31309;DHT22;17936;52.446;10.840;2023-04-26T09:38:15;9.80;97.00
31309;DHT22;17936;52.446;10.840;2023-04-26T09:40:46;9.40;97.70
31309;DHT22;17936;52.446;10.840;2023-04-26T09:43:14;9.90;98.20
31309;DHT22;17936;52.446;10.840;2023-04-26T09:48:18;9.50;99.20
31309;DHT22;17936;52.446;10.840;2023-04-26T09:50:45;9.30;98.70
31309;DHT22;17936;52.446;10.840;2023-04-26T09:53:30;9.00;99.90
31309;DHT22;17936;52.446;10.840;2023-04-26T09:55:57;8.90;99.90
31309;DHT22;17936;52.446;10.840;2023-04-26T09:58:30;9.20;99.90
31309;DHT22;17936;52.446;10.840;2023-04-26T10:00:55;9.40;99.90
31309;DHT22;17936;52.446;10.840;2023-04-26T10:03:22;9.00;99.90
31309;DHT22;17936;52.446;10.840;2023-04-26T10:05:48;9.40;99.90
31309;DHT22;17936;52.446;10.840;2023-04-26T10:08:14;9.40;99.90
31309;DHT22;17936;52.446;10.840;2023-04-26T10:10:41;10.20;99.20
31309;DHT22;17936;52.446;10.840;2023-04-26T10:13:07;10.70;98.20
31309;DHT22;17936;52.446;10.840;2023-04-26T10:15:33;10.00;96.70
31309;DHT22;17936;52.446;10.840;2023-04-26T10:17:59;9.10;96.30
31309;DHT22;17936;52.446;10.840;2023-04-26T10:20:27;9.10;96.90
31309;DHT22;17936;52.446;10.840;2023-04-26T10:22:55;8.90;97.50
31309;DHT22;17936;52.446;10.840;2023-04-26T10:25:38;8.80;98.40
31309;DHT22;17936;52.446;10.840;2023-04-26T10:28:04;8.70;98.90
31309;DHT22;17936;52.446;10.840;2023-04-26T10:30:30;8.70;98.50
31309;DHT22;17936;52.446;10.840;2023-04-26T10:35:26;9.30;98.70
31309;DHT22;17936;52.446;10.840;2023-04-26T10:40:35;9.40;97.90
31309;DHT22;17936;52.446;10.840;2023-04-26T10:45:41;9.80;97.30
31309;DHT22;17936;52.446;10.840;2023-04-26T10:48:42;10.20;97.50
31309;DHT22;17936;52.446;10.840;2023-04-26T10:51:08;11.00;97.90
31309;DHT22;17936;52.446;10.840;2023-04-26T10:58:49;10.20;97.20
31309;DHT22;17936;52.446;10.840;2023-04-26T11:01:31;9.70;96.40
31309;DHT22;17936;52.446;10.840;2023-04-26T11:06:23;10.00;97.40
31309;DHT22;17936;52.446;10.840;2023-04-26T11:08:49;10.50;96.50
31309;DHT22;17936;52.446;10.840;2023-04-26T11:11:16;10.90;94.30
31309;DHT22;17936;52.446;10.840;2023-04-26T11:13:44;10.50;94.30
31309;DHT22;17936;52.446;10.840;2023-04-26T11:16:14;10.40;94.70
31309;DHT22;17936;52.446;10.840;2023-04-26T11:18:44;10.00;96.10
31309;DHT22;17936;52.446;10.840;2023-04-26T11:21:11;9.90;96.40
31309;DHT22;17936;52.446;10.840;2023-04-26T11:23:39;9.80;96.70
31309;DHT22;17936;52.446;10.840;2023-04-26T11:26:06;10.30;96.60
31309;DHT22;17936;52.446;10.840;2023-04-26T11:28:34;10.50;96.40
31309;DHT22;17936;52.446;10.840;2023-04-26T11:31:00;10.70;96.80
31309;DHT22;17936;52.446;10.840;2023-04-26T11:33:26;11.00;96.60
31309;DHT22;17936;52.446;10.840;2023-04-26T11:35:53;11.10;93.80
31309;DHT22;17936;52.446;10.840;2023-04-26T11:38:23;11.00;92.20
31309;DHT22;17936;52.446;10.840;2023-04-26T11:40:56;10.80;94.50
31309;DHT22;17936;52.446;10.840;2023-04-26T11:43:37;10.60;94.00
31309;DHT22;17936;52.446;10.840;2023-04-26T11:46:07;10.20;94.70
31309;DHT22;17936;52.446;10.840;2023-04-26T11:48:35;10.10;94.80
31309;DHT22;17936;52.446;10.840;2023-04-26T11:51:03;10.00;94.80
31309;DHT22;17936;52.446;10.840;2023-04-26T11:53:41;10.00;95.80
31309;DHT22;17936;52.446;10.840;2023-04-26T11:56:16;10.20;95.40
31309;DHT22;17936;52.446;10.840;2023-04-26T11:58:44;10.20;94.80
31309;DHT22;17936;52.446;10.840;2023-04-26T12:01:09;10.70;93.90
31309;DHT22;17936;52.446;10.840;2023-04-26T12:03:35;10.80;94.40
31309;DHT22;17936;52.446;10.840;2023-04-26T12:06:02;11.50;91.90
31309;DHT22;17936;52.446;10.840;2023-04-26T12:08:28;12.30;92.80
31309;DHT22;17936;52.446;10.840;2023-04-26T12:11:00;12.50;91.00
31309;DHT22;17936;52.446;10.840;2023-04-26T12:13:27;12.10;90.90
31309;DHT22;17936;52.446;10.840;2023-04-26T12:15:53;12.40;90.70
31309;DHT22;17936;52.446;10.840;2023-04-26T12:18:18;12.30;91.00
31309;DHT22;17936;52.446;10.840;2023-04-26T12:20:44;12.30;91.90
31309;DHT22;17936;52.446;10.840;2023-04-26T12:23:14;11.10;93.50
31309;DHT22;17936;52.446;10.840;2023-04-26T12:25:51;10.80;93.30
31309;DHT22;17936;52.446;10.840;2023-04-26T12:28:16;10.20;93.30
31309;DHT22;17936;52.446;10.840;2023-04-26T12:30:42;10.40;93.90
31309;DHT22;17936;52.446;10.840;2023-04-26T12:33:07;10.50;93.50
31309;DHT22;17936;52.446;10.840;2023-04-26T12:35:33;11.00;93.40
31309;DHT22;17936;52.446;10.840;2023-04-26T12:37:59;10.70;93.40
31309;DHT22;17936;52.446;10.840;2023-04-26T12:40:26;11.10;92.70
31309;DHT22;17936;52.446;10.840;2023-04-26T12:42:53;10.90;92.40
31309;DHT22;17936;52.446;10.840;2023-04-26T12:45:21;10.70;92.60
31309;DHT22;17936;52.446;10.840;2023-04-26T12:47:47;10.20;92.20
31309;DHT22;17936;52.446;10.840;2023-04-26T12:50:14;10.20;91.70
31309;DHT22;17936;52.446;10.840;2023-04-26T12:52:41;10.60;93.40
31309;DHT22;17936;52.446;10.840;2023-04-26T12:55:08;11.30;92.60
31309;DHT22;17936;52.446;10.840;2023-04-26T12:57:38;11.30;91.40
31309;DHT22;17936;52.446;10.840;2023-04-26T13:00:06;11.10;91.60
31309;DHT22;17936;52.446;10.840;2023-04-26T13:02:32;11.20;92.50
31309;DHT22;17936;52.446;10.840;2023-04-26T13:04:59;11.30;92.40
31309;DHT22;17936;52.446;10.840;2023-04-26T13:07:26;10.80;91.40
31309;DHT22;17936;52.446;10.840;2023-04-26T13:09:52;11.00;91.80
31309;DHT22;17936;52.446;10.840;2023-04-26T13:12:17;10.80;90.80
31309;DHT22;17936;52.446;10.840;2023-04-26T13:14:43;10.70;91.90
31309;DHT22;17936;52.446;10.840;2023-04-26T13:17:08;10.70;91.60
31309;DHT22;17936;52.446;10.840;2023-04-26T13:19:35;10.40;91.80
31309;DHT22;17936;52.446;10.840;2023-04-26T13:22:04;10.20;92.20
31309;DHT22;17936;52.446;10.840;2023-04-26T13:24:32;10.30;92.10
31309;DHT22;17936;52.446;10.840;2023-04-26T13:26:58;10.20;91.10
31309;DHT22;17936;52.446;10.840;2023-04-26T13:29:24;10.10;90.70
31309;DHT22;17936;52.446;10.840;2023-04-26T13:31:50;10.00;90.70
31309;DHT22;17936;52.446;10.840;2023-04-26T13:34:15;10.10;91.00
31309;DHT22;17936;52.446;10.840;2023-04-26T13:36:41;10.30;91.20
31309;DHT22;17936;52.446;10.840;2023-04-26T13:39:07;10.20;91.20
31309;DHT22;17936;52.446;10.840;2023-04-26T13:41:34;10.40;91.30
31309;DHT22;17936;52.446;10.840;2023-04-26T13:44:03;10.50;91.40
31309;DHT22;17936;52.446;10.840;2023-04-26T13:46:29;10.30;91.80
31309;DHT22;17936;52.446;10.840;2023-04-26T13:48:55;10.30;92.50
31309;DHT22;17936;52.446;10.840;2023-04-26T13:51:21;10.30;92.90
31309;DHT22;17936;52.446;10.840;2023-04-26T13:53:47;10.20;92.60
31309;DHT22;17936;52.446;10.840;2023-04-26T13:56:12;10.20;92.80
31309;DHT22;17936;52.446;10.840;2023-04-26T13:58:40;10.10;92.50
31309;DHT22;17936;52.446;10.840;2023-04-26T14:01:06;10.00;93.50
31309;DHT22;17936;52.446;10.840;2023-04-26T14:03:31;10.10;92.90
31309;DHT22;17936;52.446;10.840;2023-04-26T14:05:57;10.20;92.20
31309;DHT22;17936;52.446;10.840;2023-04-26T14:08:23;10.10;92.70
31309;DHT22;17936;52.446;10.840;2023-04-26T14:10:48;10.70;93.50
31309;DHT22;17936;52.446;10.840;2023-04-26T14:13:14;11.30;92.80
31309;DHT22;17936;52.446;10.840;2023-04-26T14:15:40;11.60;92.20
31309;DHT22;17936;52.446;10.840;2023-04-26T14:18:06;11.80;91.70
31309;DHT22;17936;52.446;10.840;2023-04-26T14:20:32;11.30;92.40
31309;DHT22;17936;52.446;10.840;2023-04-26T14:22:57;10.90;92.20
31309;DHT22;17936;52.446;10.840;2023-04-26T14:25:23;10.70;92.10
31309;DHT22;17936;52.446;10.840;2023-04-26T14:27:48;10.60;93.00
31309;DHT22;17936;52.446;10.840;2023-04-26T14:30:14;10.50;92.70
31309;DHT22;17936;52.446;10.840;2023-04-26T14:32:39;10.40;92.90
31309;DHT22;17936;52.446;10.840;2023-04-26T14:35:06;10.20;93.20
31309;DHT22;17936;52.446;10.840;2023-04-26T14:37:31;10.00;92.80
31309;DHT22;17936;52.446;10.840;2023-04-26T14:39:57;10.00;93.60
31309;DHT22;17936;52.446;10.840;2023-04-26T14:42:22;10.00;93.40
31309;DHT22;17936;52.446;10.840;2023-04-26T14:44:48;10.00;93.40
31309;DHT22;17936;52.446;10.840;2023-04-26T14:47:14;10.00;93.00
31309;DHT22;17936;52.446;10.840;2023-04-26T14:49:39;9.90;92.40
31309;DHT22;17936;52.446;10.840;2023-04-26T14:52:05;9.90;93.10
31309;DHT22;17936;52.446;10.840;2023-04-26T14:54:39;10.00;93.20
31309;DHT22;17936;52.446;10.840;2023-04-26T14:57:04;10.00;93.50
31309;DHT22;17936;52.446;10.840;2023-04-26T14:59:30;10.10;93.40
31309;DHT22;17936;52.446;10.840;2023-04-26T15:01:55;10.20;93.00
31309;DHT22;17936;52.446;10.840;2023-04-26T15:04:21;10.10;92.90
31309;DHT22;17936;52.446;10.840;2023-04-26T15:06:47;10.20;93.10
31309;DHT22;17936;52.446;10.840;2023-04-26T15:09:12;10.30;93.80
31309;DHT22;17936;52.446;10.840;2023-04-26T15:11:38;10.10;93.10
31309;DHT22;17936;52.446;10.840;2023-04-26T15:14:03;10.10;93.10
31309;DHT22;17936;52.446;10.840;2023-04-26T15:16:29;9.90;93.00
31309;DHT22;17936;52.446;10.840;2023-04-26T15:18:54;10.00;93.50
31309;DHT22;17936;52.446;10.840;2023-04-26T15:21:20;9.90;93.90
31309;DHT22;17936;52.446;10.840;2023-04-26T15:23:46;9.70;93.90
31309;DHT22;17936;52.446;10.840;2023-04-26T15:26:12;9.70;93.90
31309;DHT22;17936;52.446;10.840;2023-04-26T15:28:38;9.60;94.00
31309;DHT22;17936;52.446;10.840;2023-04-26T15:31:06;9.50;94.20
31309;DHT22;17936;52.446;10.840;2023-04-26T15:33:32;9.60;94.40
31309;DHT22;17936;52.446;10.840;2023-04-26T15:35:57;9.40;94.30
31309;DHT22;17936;52.446;10.840;2023-04-26T15:38:23;9.40;94.90
31309;DHT22;17936;52.446;10.840;2023-04-26T15:40:48;9.30;95.00
31309;DHT22;17936;52.446;10.840;2023-04-26T15:43:18;9.40;95.00
31309;DHT22;17936;52.446;10.840;2023-04-26T15:45:44;9.30;95.40